createdAt,value
2022-10-12T00:02:22.574Z,5.53
2022-10-12T00:04:49.328Z,4.80
2022-10-12T00:07:16.331Z,4.57
2022-10-12T00:09:43.214Z,5.18
2022-10-12T00:12:09.943Z,4.82
2022-10-12T00:14:38.048Z,5.18
2022-10-12T00:17:04.907Z,4.45
2022-10-12T00:19:31.633Z,4.35
2022-10-12T00:21:58.390Z,4.63
2022-10-12T00:24:25.554Z,4.70
2022-10-12T00:26:52.394Z,4.78
2022-10-12T00:29:19.159Z,4.60
2022-10-12T00:31:45.892Z,4.55
2022-10-12T00:34:12.772Z,3.65
2022-10-12T00:36:39.582Z,3.80
2022-10-12T00:39:09.423Z,4.20
2022-10-12T00:41:45.044Z,4.10
2022-10-12T00:44:44.771Z,4.07
2022-10-12T00:47:27.695Z,3.97
2022-10-12T00:50:26.603Z,4.00
2022-10-12T00:53:05.758Z,4.32
2022-10-12T00:55:41.502Z,3.85
2022-10-12T00:58:09.060Z,3.97
2022-10-12T01:00:39.084Z,4.15
2022-10-12T01:03:09.621Z,4.93
2022-10-12T01:05:40.568Z,5.57
2022-10-12T01:08:07.363Z,4.57
2022-10-12T01:10:34.104Z,5.18
2022-10-12T01:13:01.617Z,4.45
2022-10-12T01:15:57.457Z,4.38
2022-10-12T01:18:48.552Z,4.80
2022-10-12T01:21:22.018Z,4.72
2022-10-12T01:24:19.897Z,4.95
2022-10-12T01:27:34.598Z,4.45
2022-10-12T01:30:08.471Z,4.40
2022-10-12T01:32:37.880Z,4.47
2022-10-12T01:35:21.259Z,4.82
2022-10-12T01:38:22.197Z,4.22
2022-10-12T01:41:17.135Z,5.03
2022-10-12T01:43:45.938Z,4.50
2022-10-12T01:46:15.670Z,4.65
2022-10-12T01:48:46.895Z,4.75
2022-10-12T01:51:28.163Z,5.13
2022-10-12T01:55:07.797Z,4.28
2022-10-12T01:58:29.401Z,4.82
2022-10-12T02:01:14.369Z,4.30
2022-10-12T02:04:30.678Z,4.40
2022-10-12T02:07:25.632Z,4.35
2022-10-12T02:09:59.407Z,4.63
2022-10-12T02:12:28.735Z,4.22
2022-10-12T02:15:02.610Z,4.70
2022-10-12T02:17:32.492Z,4.40
2022-10-12T02:20:01.962Z,3.88
2022-10-12T02:22:36.544Z,4.60
2022-10-12T02:25:10.914Z,4.03
2022-10-12T02:27:44.265Z,4.45
2022-10-12T02:30:12.040Z,4.38
2022-10-12T02:32:54.681Z,4.22
2022-10-12T02:35:35.434Z,3.85
2022-10-12T02:38:20.167Z,4.60
2022-10-12T02:41:00.871Z,4.38
2022-10-12T02:43:48.801Z,4.30
2022-10-12T02:46:19.031Z,4.25
2022-10-12T02:48:49.059Z,4.90
2022-10-12T02:51:17.408Z,4.32
2022-10-12T02:53:45.123Z,3.65
2022-10-12T02:56:15.366Z,4.18
2022-10-12T02:58:47.364Z,4.82
2022-10-12T03:01:16.965Z,3.88
2022-10-12T03:03:45.179Z,4.05
2022-10-12T03:06:13.012Z,4.13
2022-10-12T03:08:39.820Z,4.60
2022-10-12T03:11:12.508Z,4.20
2022-10-12T03:13:39.331Z,3.90
2022-10-12T03:16:09.882Z,3.92
2022-10-12T03:18:38.183Z,3.60
2022-10-12T03:21:05.633Z,4.20
2022-10-12T03:23:32.745Z,3.95
2022-10-12T03:25:59.712Z,3.85
2022-10-12T03:28:26.596Z,4.00
2022-10-12T03:30:53.708Z,4.05
2022-10-12T03:33:20.712Z,4.20
2022-10-12T03:35:48.025Z,4.30
2022-10-12T03:38:16.547Z,4.25
2022-10-12T03:40:43.579Z,3.95
2022-10-12T03:43:10.634Z,4.15
2022-10-12T03:45:37.871Z,3.78
2022-10-12T03:48:06.829Z,4.38
2022-10-12T03:50:35.089Z,4.40
2022-10-12T03:53:04.868Z,4.18
2022-10-12T03:55:33.246Z,4.90
2022-10-12T03:58:00.192Z,4.13
2022-10-12T04:00:28.024Z,3.55
2022-10-12T04:02:55.531Z,4.07
2022-10-12T04:05:22.756Z,3.80
2022-10-12T04:07:49.843Z,4.68
2022-10-12T04:10:16.931Z,4.05
2022-10-12T04:12:43.694Z,4.00
2022-10-12T04:15:10.871Z,4.00
2022-10-12T04:17:38.425Z,4.20
2022-10-12T04:20:07.004Z,4.18
2022-10-12T04:22:33.852Z,4.43
2022-10-12T04:25:00.734Z,3.90
2022-10-12T04:27:27.720Z,4.00
2022-10-12T04:29:54.612Z,4.63
2022-10-12T04:32:21.403Z,3.80
2022-10-12T04:34:48.106Z,3.45
2022-10-12T04:37:14.838Z,4.00
2022-10-12T04:39:41.567Z,3.58
2022-10-12T04:42:08.286Z,4.32
2022-10-12T04:44:35.045Z,4.15
2022-10-12T04:47:03.211Z,3.58
2022-10-12T04:49:30.033Z,3.80
2022-10-12T04:51:56.829Z,4.22
2022-10-12T04:54:23.544Z,3.75
2022-10-12T04:56:50.263Z,4.15
2022-10-12T04:59:17.020Z,3.85
2022-10-12T05:01:43.814Z,4.00
2022-10-12T05:04:10.704Z,3.78
2022-10-12T05:06:37.465Z,4.38
2022-10-12T05:09:04.321Z,4.10
2022-10-12T05:11:31.363Z,4.40
2022-10-12T05:13:58.206Z,4.32
2022-10-12T05:16:25.434Z,4.28
2022-10-12T05:18:52.451Z,4.25
2022-10-12T05:21:19.221Z,3.75
2022-10-12T05:23:51.633Z,4.47
2022-10-12T05:26:19.290Z,3.88
2022-10-12T05:28:46.294Z,4.35
2022-10-12T05:31:13.220Z,4.40
2022-10-12T05:33:40.200Z,4.03
2022-10-12T05:36:07.728Z,4.15
2022-10-12T05:38:34.592Z,4.20
2022-10-12T05:41:01.298Z,4.38
2022-10-12T05:43:28.919Z,4.30
2022-10-12T05:45:55.754Z,4.20
2022-10-12T05:48:22.561Z,4.05
2022-10-12T05:50:54.210Z,4.30
2022-10-12T05:53:22.790Z,4.72
2022-10-12T05:55:59.261Z,4.30
2022-10-12T05:58:29.307Z,4.15
2022-10-12T06:01:05.059Z,3.85
2022-10-12T06:03:35.000Z,3.70
2022-10-12T06:06:02.580Z,4.18
2022-10-12T06:08:31.402Z,3.80
2022-10-12T06:10:58.255Z,4.28
2022-10-12T06:13:25.275Z,4.22
2022-10-12T06:15:52.504Z,4.65
2022-10-12T06:18:19.659Z,4.22
2022-10-12T06:21:03.983Z,4.10
2022-10-12T06:23:39.412Z,5.32
2022-10-12T06:26:06.685Z,4.22
2022-10-12T06:28:33.626Z,4.80
2022-10-12T06:31:00.861Z,4.22
2022-10-12T06:33:28.219Z,3.92
2022-10-12T06:35:56.076Z,4.10
2022-10-12T06:38:23.819Z,3.88
2022-10-12T06:40:50.675Z,4.40
2022-10-12T06:43:17.417Z,4.55
2022-10-12T06:45:44.260Z,4.78
2022-10-12T06:48:13.844Z,4.80
2022-10-12T06:50:44.819Z,4.95
2022-10-12T06:53:11.589Z,5.10
2022-10-12T06:55:41.341Z,4.18
2022-10-12T06:58:08.139Z,3.88
2022-10-12T07:00:35.446Z,4.22
2022-10-12T07:03:02.278Z,4.88
2022-10-12T07:05:30.129Z,4.10
2022-10-12T07:07:57.216Z,4.18
2022-10-12T07:10:25.083Z,4.25
2022-10-12T07:12:52.069Z,4.72
2022-10-12T07:15:19.331Z,4.50
2022-10-12T07:17:46.108Z,4.47
2022-10-12T07:20:13.059Z,4.90
2022-10-12T07:22:39.828Z,4.07
2022-10-12T07:25:07.271Z,3.88
2022-10-12T07:27:33.998Z,4.10
2022-10-12T07:30:00.805Z,3.88
2022-10-12T07:32:27.686Z,4.38
2022-10-12T07:34:54.462Z,4.13
2022-10-12T07:37:21.226Z,4.25
2022-10-12T07:39:49.025Z,4.38
2022-10-12T07:42:19.325Z,4.32
2022-10-12T07:44:46.469Z,4.50
2022-10-12T07:47:13.255Z,5.65
2022-10-12T07:49:39.976Z,5.72
2022-10-12T07:52:06.963Z,4.60
2022-10-12T07:54:33.720Z,4.60
2022-10-12T07:57:00.524Z,4.07
2022-10-12T07:59:27.447Z,4.05
2022-10-12T08:01:54.298Z,4.88
2022-10-12T08:04:21.158Z,4.53
2022-10-12T08:06:47.947Z,4.43
2022-10-12T08:09:14.772Z,4.60
2022-10-12T08:11:41.769Z,5.32
2022-10-12T08:14:15.120Z,5.60
2022-10-12T08:16:44.285Z,6.95
2022-10-12T08:19:13.197Z,6.65
2022-10-12T08:21:41.903Z,6.40
2022-10-12T08:24:13.192Z,7.13
2022-10-12T08:26:40.054Z,7.53
2022-10-12T08:29:08.416Z,6.35
2022-10-12T08:31:35.728Z,8.00
2022-10-12T08:34:03.556Z,7.82
2022-10-12T08:36:30.790Z,7.30
2022-10-12T08:38:57.728Z,7.68
2022-10-12T08:42:11.463Z,6.82
2022-10-12T08:45:21.916Z,7.80
2022-10-12T08:48:05.015Z,7.55
2022-10-12T08:50:42.374Z,7.15
2022-10-12T08:53:23.295Z,7.18
2022-10-12T08:55:52.496Z,7.55
2022-10-12T08:58:29.548Z,7.78
2022-10-12T09:01:37.075Z,7.13
2022-10-12T09:04:47.679Z,6.93
2022-10-12T09:07:26.974Z,6.88
2022-10-12T09:10:45.405Z,6.90
2022-10-12T09:13:28.369Z,6.32
2022-10-12T09:16:23.011Z,6.80
2022-10-12T09:19:06.926Z,6.80
2022-10-12T09:21:35.252Z,6.47
2022-10-12T09:24:11.763Z,7.05
2022-10-12T09:26:39.981Z,6.57
2022-10-12T09:29:35.764Z,7.00
2022-10-12T09:32:31.874Z,6.25
2022-10-12T09:34:59.605Z,6.68
2022-10-12T09:37:31.468Z,5.78
2022-10-12T09:39:59.178Z,5.88
2022-10-12T09:42:26.163Z,6.03
2022-10-12T09:45:03.413Z,5.95
2022-10-12T09:47:33.196Z,5.43
2022-10-12T09:50:06.955Z,5.55
2022-10-12T09:52:36.711Z,5.05
2022-10-12T09:58:02.592Z,5.13
2022-10-12T10:00:31.773Z,5.30
2022-10-12T10:03:01.062Z,4.95
2022-10-12T10:05:35.342Z,4.38
2022-10-12T10:08:14.175Z,5.22
2022-10-12T10:11:01.330Z,4.50
2022-10-12T10:13:36.675Z,3.80
2022-10-12T10:16:09.910Z,3.88
2022-10-12T10:18:45.094Z,3.42
2022-10-12T10:21:14.613Z,3.50
2022-10-12T10:24:07.875Z,3.67
2022-10-12T10:27:03.471Z,4.70
2022-10-12T10:29:37.382Z,4.18
2022-10-12T10:32:31.661Z,4.22
2022-10-12T10:35:11.976Z,4.05
2022-10-12T10:37:46.378Z,3.55
2022-10-12T10:40:33.446Z,3.22
2022-10-12T10:43:09.478Z,3.50
2022-10-12T10:48:19.934Z,3.92
2022-10-12T10:51:06.262Z,3.20
2022-10-12T10:53:46.557Z,2.90
2022-10-12T10:56:28.692Z,3.53
2022-10-12T10:59:13.261Z,3.63
2022-10-12T11:02:02.326Z,4.03
2022-10-12T11:04:52.279Z,3.47
2022-10-12T11:07:49.551Z,3.53
2022-10-12T11:10:32.868Z,4.10
2022-10-12T11:13:14.597Z,4.80
2022-10-12T11:15:57.620Z,4.50
2022-10-12T11:18:46.111Z,4.30
2022-10-12T11:21:19.976Z,3.58
2022-10-12T11:23:57.032Z,4.65
2022-10-12T11:26:36.966Z,4.10
2022-10-12T11:29:06.432Z,4.43
2022-10-12T11:31:39.752Z,4.30
2022-10-12T11:34:15.902Z,4.88
2022-10-12T11:37:14.285Z,3.92
2022-10-12T11:39:42.639Z,4.40
2022-10-12T11:42:21.790Z,4.57
2022-10-12T11:44:50.065Z,3.50
2022-10-12T11:47:43.980Z,3.67
2022-10-12T11:50:44.327Z,3.85
2022-10-12T11:53:31.325Z,3.60
2022-10-12T11:56:32.655Z,4.00
2022-10-12T11:59:10.085Z,4.63
2022-10-12T12:02:11.108Z,5.03
2022-10-12T12:04:44.170Z,4.80
2022-10-12T12:07:23.279Z,4.85
2022-10-12T12:09:51.627Z,4.60
2022-10-12T12:12:24.655Z,5.72
2022-10-12T12:14:54.179Z,5.15
2022-10-12T12:17:26.843Z,4.88
2022-10-12T12:20:02.718Z,3.85
2022-10-12T12:22:52.011Z,4.30
2022-10-12T12:25:26.008Z,3.72
2022-10-12T12:28:23.601Z,4.18
2022-10-12T12:31:05.672Z,4.95
2022-10-12T12:33:38.476Z,5.38
2022-10-12T12:36:10.529Z,5.60
2022-10-12T12:38:50.075Z,5.00
2022-10-12T12:41:24.231Z,5.88
2022-10-12T12:44:04.179Z,6.00
2022-10-12T12:46:52.504Z,6.85
2022-10-12T12:49:52.765Z,6.60
2022-10-12T12:52:37.842Z,8.02
2022-10-12T12:55:16.608Z,7.45
2022-10-12T12:58:36.846Z,7.18
2022-10-12T13:01:34.047Z,7.03
2022-10-12T13:04:38.043Z,7.95
2022-10-12T13:07:34.572Z,8.85
2022-10-12T13:10:13.113Z,9.80
2022-10-12T13:12:58.426Z,8.90
2022-10-12T13:15:44.515Z,9.43
2022-10-12T13:18:57.807Z,9.00
2022-10-12T13:21:32.115Z,9.52
2022-10-12T13:24:06.001Z,10.45
2022-10-12T13:26:36.961Z,9.77
2022-10-12T13:29:16.620Z,10.63
2022-10-12T13:31:47.475Z,10.13
2022-10-12T13:34:26.383Z,10.00
2022-10-12T13:37:02.029Z,9.90
2022-10-12T13:39:34.056Z,9.65
2022-10-12T13:42:03.761Z,9.43
2022-10-12T13:44:35.363Z,9.43
2022-10-12T13:47:21.749Z,10.73
2022-10-12T13:49:48.576Z,9.60
2022-10-12T13:52:15.251Z,9.43
2022-10-12T13:54:46.170Z,10.30
2022-10-12T13:57:37.821Z,9.95
2022-10-12T14:00:22.415Z,8.35
2022-10-12T14:03:06.296Z,9.55
2022-10-12T14:05:44.304Z,10.50
2022-10-12T14:08:16.880Z,9.65
2022-10-12T14:10:44.810Z,10.38
2022-10-12T14:13:24.260Z,9.50
2022-10-12T14:15:51.452Z,7.75
2022-10-12T14:18:41.776Z,7.22
2022-10-12T14:21:25.648Z,7.78
2022-10-12T14:24:06.743Z,7.85
2022-10-12T14:26:51.419Z,6.63
2022-10-12T14:29:45.305Z,6.40
2022-10-12T14:32:12.005Z,6.60
2022-10-12T14:34:50.339Z,6.60
2022-10-12T14:37:17.040Z,6.47
2022-10-12T14:39:49.048Z,6.30
2022-10-12T14:42:26.743Z,6.65
2022-10-12T14:44:54.399Z,6.80
2022-10-12T14:47:33.545Z,6.20
2022-10-12T14:50:07.489Z,4.97
2022-10-12T14:52:46.711Z,4.28
2022-10-12T14:55:21.717Z,5.13
2022-10-12T14:57:49.274Z,4.70
2022-10-12T15:00:28.962Z,4.30
2022-10-12T15:02:57.747Z,4.15
2022-10-12T15:05:28.752Z,4.85
2022-10-12T15:07:55.576Z,4.30
2022-10-12T15:10:24.424Z,3.83
2022-10-12T15:12:51.960Z,3.65
2022-10-12T15:15:34.644Z,4.18
2022-10-12T15:18:02.252Z,4.20
2022-10-12T15:20:31.612Z,4.45
2022-10-12T15:23:00.233Z,4.38
2022-10-12T15:25:35.867Z,4.40
2022-10-12T15:28:04.359Z,4.55
2022-10-12T15:30:32.743Z,4.25
2022-10-12T15:32:59.859Z,3.92
2022-10-12T15:35:31.301Z,4.40
2022-10-12T15:37:58.086Z,4.43
2022-10-12T15:40:28.389Z,4.35
2022-10-12T15:42:55.817Z,4.35
2022-10-12T15:45:43.595Z,5.10
2022-10-12T15:48:10.509Z,4.15
2022-10-12T15:50:48.748Z,4.43
2022-10-12T15:53:26.411Z,4.70
2022-10-12T15:55:54.707Z,4.88
2022-10-12T15:58:22.029Z,3.85
2022-10-12T16:00:49.445Z,3.85
2022-10-12T16:03:25.669Z,4.47
2022-10-12T16:05:53.687Z,4.00
2022-10-12T16:08:20.584Z,3.90
2022-10-12T16:10:47.909Z,4.50
2022-10-12T16:13:15.873Z,4.15
2022-10-12T16:15:43.629Z,4.32
2022-10-12T16:18:12.015Z,3.80
2022-10-12T16:20:41.265Z,3.63
2022-10-12T16:23:21.695Z,3.90
2022-10-12T16:25:48.527Z,3.28
2022-10-12T16:28:15.402Z,4.00
2022-10-12T16:30:42.606Z,4.47
2022-10-12T16:33:09.405Z,3.80
2022-10-12T16:35:39.556Z,3.85
2022-10-12T16:38:06.603Z,4.00
2022-10-12T16:40:33.552Z,3.88
2022-10-12T16:43:00.373Z,4.07
2022-10-12T16:45:27.294Z,4.45
2022-10-12T16:47:54.133Z,4.43
2022-10-12T16:50:24.212Z,4.47
2022-10-12T16:52:51.744Z,7.35
2022-10-12T16:55:19.416Z,6.00
2022-10-12T16:57:46.907Z,5.55
2022-10-12T17:00:19.184Z,7.13
2022-10-12T17:02:48.716Z,7.45
2022-10-12T17:05:15.641Z,6.15
2022-10-12T17:07:42.415Z,5.07
2022-10-12T17:10:09.753Z,5.57
2022-10-12T17:12:36.749Z,5.07
2022-10-12T17:15:04.967Z,5.18
2022-10-12T17:17:31.744Z,5.80
2022-10-12T17:19:58.493Z,5.07
2022-10-12T17:22:25.286Z,5.22
2022-10-12T17:24:52.159Z,5.13
2022-10-12T17:27:19.236Z,4.82
2022-10-12T17:29:46.095Z,4.88
2022-10-12T17:32:13.042Z,4.90
2022-10-12T17:34:43.662Z,4.75
2022-10-12T17:37:13.717Z,4.80
2022-10-12T17:39:44.974Z,5.25
2022-10-12T17:42:12.682Z,5.18
2022-10-12T17:44:39.471Z,4.68
2022-10-12T17:47:06.371Z,5.05
2022-10-12T17:49:33.330Z,5.38
2022-10-12T17:52:00.201Z,5.07
2022-10-12T17:54:27.166Z,5.97
2022-10-12T17:56:56.110Z,4.75
2022-10-12T17:59:23.695Z,4.85
2022-10-12T18:01:51.667Z,5.30
2022-10-12T18:04:19.517Z,4.70
2022-10-12T18:06:46.799Z,4.72
2022-10-12T18:09:14.174Z,5.65
2022-10-12T18:11:41.095Z,6.45
2022-10-12T18:14:10.403Z,6.57
2022-10-12T18:16:37.847Z,7.63
2022-10-12T18:19:07.522Z,7.40
2022-10-12T18:21:34.424Z,6.90
2022-10-12T18:24:07.162Z,5.97
2022-10-12T18:26:34.913Z,5.40
2022-10-12T18:29:02.335Z,5.85
2022-10-12T18:31:30.330Z,7.03
2022-10-12T18:33:59.302Z,9.57
2022-10-12T18:36:27.543Z,8.20
2022-10-12T18:38:54.641Z,6.90
2022-10-12T18:41:25.601Z,6.90
2022-10-12T18:43:57.959Z,6.93
2022-10-12T18:46:28.736Z,5.93
2022-10-12T18:48:56.310Z,6.18
2022-10-12T18:51:28.615Z,6.07
2022-10-12T18:53:56.723Z,6.90
2022-10-12T18:56:23.748Z,7.15
2022-10-12T18:58:50.620Z,6.80
2022-10-12T19:01:22.500Z,6.45
2022-10-12T19:03:49.710Z,6.35
2022-10-12T19:06:23.932Z,6.97
2022-10-12T19:08:51.677Z,7.10
2022-10-12T19:11:21.985Z,7.75
2022-10-12T19:13:55.425Z,7.43
2022-10-12T19:16:23.156Z,7.88
2022-10-12T19:18:56.454Z,7.50
2022-10-12T19:21:23.372Z,7.68
2022-10-12T19:23:50.363Z,9.13
2022-10-12T19:26:23.217Z,8.27
2022-10-12T19:28:51.910Z,7.05
2022-10-12T19:31:24.542Z,6.28
2022-10-12T19:33:51.404Z,6.07
2022-10-12T19:36:18.892Z,6.70
2022-10-12T19:38:48.273Z,5.45
2022-10-12T19:41:15.820Z,5.97
2022-10-12T19:43:46.289Z,5.40
2022-10-12T19:46:13.460Z,5.53
2022-10-12T19:48:42.407Z,5.95
2022-10-12T19:51:12.076Z,5.45
2022-10-12T19:53:40.440Z,5.63
2022-10-12T19:56:15.319Z,5.75
2022-10-12T19:58:44.952Z,5.93
2022-10-12T20:01:19.205Z,6.72
2022-10-12T20:03:48.202Z,5.72
2022-10-12T20:06:15.888Z,6.80
2022-10-12T20:08:45.051Z,7.15
2022-10-12T20:11:19.638Z,6.70
2022-10-12T20:13:49.353Z,6.25
2022-10-12T20:16:18.620Z,6.53
2022-10-12T20:18:45.479Z,6.97
2022-10-12T20:21:17.482Z,8.23
2022-10-12T20:23:44.548Z,7.10
2022-10-12T20:26:16.785Z,7.60
2022-10-12T20:28:43.663Z,6.60
2022-10-12T20:31:11.079Z,6.88
2022-10-12T20:33:39.224Z,7.05
2022-10-12T20:36:29.300Z,6.82
2022-10-12T20:38:58.660Z,7.13
2022-10-12T20:41:27.491Z,6.38
2022-10-12T20:43:59.455Z,7.57
2022-10-12T20:46:27.444Z,6.90
2022-10-12T20:48:59.282Z,8.35
2022-10-12T20:51:36.096Z,9.45
2022-10-12T20:54:05.713Z,10.40
2022-10-12T20:56:33.582Z,12.60
2022-10-12T20:59:01.128Z,12.20
2022-10-12T21:01:28.395Z,11.48
2022-10-12T21:03:55.536Z,11.15
2022-10-12T21:06:23.388Z,9.95
2022-10-12T21:08:52.944Z,9.25
2022-10-12T21:11:20.772Z,8.20
2022-10-12T21:13:47.871Z,8.07
2022-10-12T21:16:15.194Z,7.88
2022-10-12T21:18:42.844Z,7.60
2022-10-12T21:21:12.669Z,7.53
2022-10-12T21:23:41.682Z,7.05
2022-10-12T21:26:20.372Z,7.45
2022-10-12T21:28:47.892Z,7.53
2022-10-12T21:31:16.008Z,7.95
2022-10-12T21:33:43.274Z,7.95
2022-10-12T21:36:24.978Z,7.05
2022-10-12T21:38:52.023Z,7.10
2022-10-12T21:41:23.879Z,7.57
2022-10-12T21:43:51.776Z,7.22
2022-10-12T21:46:28.992Z,7.38
2022-10-12T21:48:57.131Z,7.10
2022-10-12T21:51:25.188Z,7.05
2022-10-12T21:53:52.804Z,7.25
2022-10-12T21:56:23.267Z,7.00
2022-10-12T21:58:51.897Z,7.18
2022-10-12T22:01:37.647Z,7.38
2022-10-12T22:04:08.232Z,7.45
2022-10-12T22:06:35.187Z,8.32
2022-10-12T22:09:06.804Z,7.18
2022-10-12T22:11:36.567Z,7.82
2022-10-12T22:14:11.179Z,7.63
2022-10-12T22:16:37.997Z,8.00
2022-10-12T22:19:07.857Z,8.18
2022-10-12T22:21:36.273Z,7.68
2022-10-12T22:24:03.802Z,8.75
2022-10-12T22:26:30.828Z,8.32
2022-10-12T22:29:00.244Z,8.95
2022-10-12T22:31:27.938Z,8.68
2022-10-12T22:33:56.015Z,8.70
2022-10-12T22:36:23.081Z,9.00
2022-10-12T22:38:49.848Z,8.38
2022-10-12T22:41:20.893Z,8.57
2022-10-12T22:43:53.898Z,7.78
2022-10-12T22:46:24.719Z,8.30
2022-10-12T22:48:53.069Z,8.55
2022-10-12T22:51:32.566Z,8.82
2022-10-12T22:54:00.849Z,8.45
2022-10-12T22:56:28.819Z,8.68
2022-10-12T22:58:58.779Z,8.52
2022-10-12T23:01:26.707Z,8.68
2022-10-12T23:03:55.007Z,8.85
2022-10-12T23:06:22.404Z,8.70
2022-10-12T23:08:49.370Z,8.68
2022-10-12T23:11:26.656Z,9.25
2022-10-12T23:13:55.674Z,9.15
2022-10-12T23:16:26.729Z,9.55
2022-10-12T23:19:05.708Z,9.00
2022-10-12T23:21:34.753Z,8.48
2022-10-12T23:24:04.795Z,9.57
2022-10-12T23:26:31.923Z,9.02
2022-10-12T23:28:59.181Z,8.48
2022-10-12T23:31:29.774Z,9.23
2022-10-12T23:34:00.423Z,8.88
2022-10-12T23:36:27.824Z,8.93
2022-10-12T23:38:54.625Z,8.70
2022-10-12T23:41:21.939Z,9.35
2022-10-12T23:43:48.723Z,8.32
2022-10-12T23:46:15.581Z,8.65
2022-10-12T23:48:42.313Z,8.38
2022-10-12T23:51:10.583Z,8.25
2022-10-12T23:53:38.842Z,8.63
2022-10-12T23:56:06.965Z,8.57
2022-10-12T23:58:34.454Z,9.23
